createdAt,value
2022-08-16T00:00:47.567Z,69.50
2022-08-16T00:03:39.124Z,69.50
2022-08-16T00:06:29.328Z,69.60
2022-08-16T00:09:16.628Z,70.00
2022-08-16T00:12:03.946Z,70.50
2022-08-16T00:14:56.871Z,70.30
2022-08-16T00:17:57.105Z,70.70
2022-08-16T00:20:47.763Z,70.90
2022-08-16T00:23:40.451Z,71.60
2022-08-16T00:26:43.969Z,75.10
2022-08-16T00:29:33.353Z,77.00
2022-08-16T00:32:23.393Z,74.10
2022-08-16T00:35:18.936Z,71.30
2022-08-16T00:38:40.670Z,71.60
2022-08-16T00:41:15.955Z,71.60
2022-08-16T00:44:13.637Z,71.60
2022-08-16T00:47:08.696Z,71.60
2022-08-16T00:49:57.103Z,72.00
2022-08-16T00:52:45.850Z,71.60
2022-08-16T00:55:43.081Z,72.10
2022-08-16T00:58:35.056Z,72.00
2022-08-16T01:01:23.319Z,72.10
2022-08-16T01:04:29.219Z,72.20
2022-08-16T01:07:20.162Z,72.50
2022-08-16T01:10:15.824Z,72.40
2022-08-16T01:13:07.493Z,72.40
2022-08-16T01:16:02.932Z,72.50
2022-08-16T01:18:56.425Z,72.50
2022-08-16T01:21:53.446Z,72.60
2022-08-16T01:24:54.140Z,72.70
2022-08-16T01:27:49.554Z,72.60
2022-08-16T01:30:49.891Z,72.60
2022-08-16T01:33:38.618Z,72.60
2022-08-16T01:36:32.919Z,72.50
2022-08-16T01:39:19.954Z,72.50
2022-08-16T01:42:13.183Z,72.50
2022-08-16T01:45:00.603Z,72.90
2022-08-16T01:47:52.233Z,72.90
2022-08-16T01:51:08.251Z,72.70
2022-08-16T01:53:55.507Z,72.60
2022-08-16T01:56:47.541Z,72.70
2022-08-16T01:59:39.818Z,72.70
2022-08-16T02:02:29.201Z,72.50
2022-08-16T02:05:16.547Z,72.60
2022-08-16T02:08:06.106Z,72.60
2022-08-16T02:10:55.525Z,72.40
2022-08-16T02:13:44.105Z,72.30
2022-08-16T02:16:37.429Z,72.20
2022-08-16T02:19:59.920Z,72.40
2022-08-16T02:22:34.160Z,72.30
2022-08-16T02:25:23.079Z,72.20
2022-08-16T02:28:10.310Z,72.20
2022-08-16T02:31:01.237Z,72.10
2022-08-16T02:33:50.785Z,72.30
2022-08-16T02:36:49.603Z,72.70
2022-08-16T02:39:39.263Z,72.70
2022-08-16T02:42:29.152Z,72.60
2022-08-16T02:45:16.887Z,72.90
2022-08-16T02:48:30.289Z,73.00
2022-08-16T02:51:13.056Z,73.10
2022-08-16T02:54:02.578Z,82.50
2022-08-16T02:56:49.580Z,91.30
2022-08-16T02:59:39.782Z,72.80
2022-08-16T03:02:32.023Z,73.90
2022-08-16T03:05:25.379Z,74.30
2022-08-16T03:08:49.796Z,75.70
2022-08-16T03:11:35.372Z,77.50
2022-08-16T03:14:24.799Z,78.90
2022-08-16T03:17:16.844Z,79.20
2022-08-16T03:20:06.498Z,79.30
2022-08-16T03:22:58.482Z,75.30
2022-08-16T03:25:48.444Z,75.50
2022-08-16T03:28:35.884Z,75.70
2022-08-16T03:31:24.108Z,75.90
2022-08-16T03:34:11.868Z,76.00
2022-08-16T03:37:02.107Z,75.90
2022-08-16T03:39:49.448Z,76.00
2022-08-16T03:43:18.950Z,76.20
2022-08-16T03:45:55.281Z,76.20
2022-08-16T03:48:45.261Z,76.30
2022-08-16T03:51:37.849Z,76.50
2022-08-16T03:54:28.449Z,76.50
2022-08-16T03:57:17.744Z,76.70
2022-08-16T04:00:20.532Z,76.70
2022-08-16T04:03:24.201Z,76.90
2022-08-16T04:06:12.022Z,77.00
2022-08-16T04:08:59.088Z,77.20
2022-08-16T04:11:49.203Z,77.40
2022-08-16T04:14:46.599Z,77.50
2022-08-16T04:17:35.819Z,77.90
2022-08-16T04:20:33.731Z,79.30
2022-08-16T04:23:25.192Z,83.90
2022-08-16T04:26:16.728Z,79.00
2022-08-16T04:29:15.307Z,78.90
2022-08-16T04:32:11.362Z,79.40
2022-08-16T04:35:09.394Z,82.50
2022-08-16T04:41:12.372Z,98.40
2022-08-16T04:44:01.192Z,99.90
2022-08-16T04:47:01.392Z,99.90
2022-08-16T04:49:52.343Z,99.90
2022-08-16T04:52:42.442Z,99.90
2022-08-16T04:55:38.118Z,94.00
2022-08-16T04:58:45.639Z,93.50
2022-08-16T05:01:58.991Z,95.50
2022-08-16T05:04:44.596Z,95.40
2022-08-16T05:28:11.907Z,95.20
2022-08-16T05:31:06.837Z,96.80
2022-08-16T05:33:54.751Z,93.50
2022-08-16T05:36:44.584Z,95.30
2022-08-16T05:39:33.374Z,94.10
2022-08-16T05:42:35.555Z,93.40
2022-08-16T05:45:27.269Z,92.90
2022-08-16T05:48:19.287Z,92.50
2022-08-16T05:51:38.569Z,92.20
2022-08-16T05:54:27.368Z,92.00
2022-08-16T05:57:20.638Z,91.80
2022-08-16T06:00:22.298Z,91.50
2022-08-16T06:03:14.560Z,91.20
2022-08-16T06:06:28.052Z,90.80
2022-08-16T06:09:19.137Z,90.60
2022-08-16T06:12:06.952Z,90.30
2022-08-16T06:14:59.515Z,89.90
2022-08-16T06:17:51.632Z,90.10
2022-08-16T06:20:51.684Z,88.70
2022-08-16T06:23:46.118Z,88.00
2022-08-16T06:26:37.419Z,87.10
2022-08-16T06:29:25.934Z,86.20
2022-08-16T06:32:27.901Z,85.30
2022-08-16T06:35:17.732Z,84.50
2022-08-16T06:38:32.161Z,84.00
2022-08-16T06:41:16.355Z,83.40
2022-08-16T06:44:03.904Z,82.50
2022-08-16T06:46:53.074Z,78.50
2022-08-16T06:49:41.386Z,77.60
2022-08-16T06:53:08.658Z,77.40
2022-08-16T06:55:45.001Z,77.60
2022-08-16T06:58:36.943Z,78.50
2022-08-16T07:01:43.097Z,78.40
2022-08-16T07:04:37.143Z,75.90
2022-08-16T07:07:36.326Z,74.40
2022-08-16T07:10:27.662Z,72.10
2022-08-16T07:13:26.697Z,69.30
2022-08-16T07:16:27.830Z,68.30
2022-08-16T07:19:17.561Z,68.70
2022-08-16T07:22:07.171Z,70.00
2022-08-16T07:25:16.765Z,81.20
2022-08-16T07:28:06.660Z,81.60
2022-08-16T07:31:03.460Z,78.20
2022-08-16T07:33:55.068Z,77.20
2022-08-16T07:36:51.298Z,65.10
2022-08-16T07:39:51.608Z,60.50
2022-08-16T07:42:40.854Z,60.10
2022-08-16T07:45:29.115Z,59.40
2022-08-16T07:48:23.955Z,58.70
2022-08-16T07:51:14.646Z,57.90
2022-08-16T07:54:09.523Z,57.30
2022-08-16T07:57:03.555Z,56.20
2022-08-16T07:59:51.945Z,55.60
2022-08-16T08:02:40.917Z,55.40
2022-08-16T08:05:38.192Z,54.50
2022-08-16T08:08:49.500Z,53.70
2022-08-16T08:17:20.126Z,51.40
2022-08-16T08:20:10.847Z,51.60
2022-08-16T08:23:01.840Z,51.00
2022-08-16T08:25:58.062Z,51.90
2022-08-16T08:28:48.187Z,50.70
2022-08-16T08:31:37.604Z,49.60
2022-08-16T08:34:27.443Z,49.50
2022-08-16T08:37:16.265Z,48.50
2022-08-16T08:40:08.687Z,66.00
2022-08-16T08:43:00.919Z,47.50
2022-08-16T08:46:18.384Z,46.70
2022-08-16T08:49:46.417Z,46.10
2022-08-16T08:52:44.427Z,45.40
2022-08-16T08:55:37.222Z,45.00
2022-08-16T08:58:24.334Z,45.00
2022-08-16T09:01:42.876Z,44.20
2022-08-16T09:04:44.718Z,44.00
2022-08-16T09:08:00.118Z,44.60
2022-08-16T09:11:02.387Z,44.40
2022-08-16T09:13:51.994Z,43.60
2022-08-16T09:17:01.680Z,43.90
2022-08-16T09:19:55.212Z,43.50
2022-08-16T09:22:51.326Z,42.60
2022-08-16T09:25:44.559Z,41.90
2022-08-16T09:29:06.776Z,41.90
2022-08-16T09:31:45.761Z,41.20
2022-08-16T09:34:33.404Z,40.20
2022-08-16T09:37:20.140Z,39.60
2022-08-16T09:40:33.080Z,39.60
2022-08-16T09:43:59.422Z,38.80
2022-08-16T09:46:48.261Z,39.10
2022-08-16T09:49:37.540Z,38.70
2022-08-16T10:54:06.055Z,39.80
2022-08-16T10:57:13.120Z,39.40
2022-08-16T11:00:03.201Z,41.10
2022-08-16T11:02:58.932Z,40.80
2022-08-16T11:06:06.454Z,40.30
2022-08-16T11:12:13.839Z,40.90
2022-08-16T11:15:12.141Z,40.60
2022-08-16T11:21:08.112Z,40.00
2022-08-16T11:23:58.130Z,41.50
2022-08-16T11:27:18.422Z,44.30
2022-08-16T11:29:57.883Z,41.50
2022-08-16T11:32:45.163Z,39.10
2022-08-16T11:38:51.637Z,41.20
2022-08-16T11:41:49.327Z,40.50
2022-08-16T11:44:52.353Z,42.70
2022-08-16T11:47:40.975Z,41.50
2022-08-16T11:50:28.862Z,40.20
2022-08-16T11:53:18.236Z,41.40
2022-08-16T11:56:06.926Z,40.20
2022-08-16T11:58:57.880Z,39.90
2022-08-16T12:01:59.347Z,39.80
2022-08-16T12:04:51.791Z,38.50
2022-08-16T12:07:40.796Z,38.30
2022-08-16T12:10:30.111Z,38.60
2022-08-16T12:13:21.322Z,39.20
2022-08-16T12:16:10.834Z,38.10
2022-08-16T12:18:58.172Z,38.00
2022-08-16T12:21:58.324Z,38.10
2022-08-16T12:24:50.937Z,37.70
2022-08-16T12:27:40.930Z,36.70
2022-08-16T12:30:35.020Z,37.00
2022-08-16T12:33:27.373Z,35.70
2022-08-16T12:36:17.053Z,36.00
2022-08-16T12:39:07.008Z,36.00
2022-08-16T12:41:54.053Z,35.70
2022-08-16T12:44:42.106Z,35.70
2022-08-16T12:47:43.562Z,35.20
2022-08-16T12:50:32.976Z,35.20
2022-08-16T12:53:19.968Z,35.40
2022-08-16T12:56:07.405Z,36.30
2022-08-16T12:58:59.529Z,35.80
2022-08-16T13:01:47.805Z,35.60
2022-08-16T13:04:37.909Z,35.40
2022-08-16T13:07:27.559Z,36.10
2022-08-16T13:10:37.458Z,36.30
2022-08-16T13:13:25.559Z,34.50
2022-08-16T13:16:20.441Z,34.10
2022-08-16T13:19:08.193Z,34.60
2022-08-16T13:21:56.432Z,34.90
2022-08-16T13:24:45.091Z,34.50
2022-08-16T13:27:34.894Z,34.90
2022-08-16T13:30:42.488Z,34.80
2022-08-16T13:33:37.050Z,35.30
2022-08-16T13:36:48.448Z,35.20
2022-08-16T13:39:32.806Z,34.60
2022-08-16T13:42:21.418Z,34.00
2022-08-16T13:45:10.347Z,33.90
2022-08-16T13:48:02.720Z,33.60
2022-08-16T13:50:52.634Z,33.50
2022-08-16T13:53:41.177Z,33.60
2022-08-16T13:56:36.958Z,33.30
2022-08-16T13:59:29.645Z,33.40
2022-08-16T14:02:17.029Z,33.20
2022-08-16T14:05:05.957Z,32.70
2022-08-16T14:07:53.323Z,31.90
2022-08-16T14:10:41.256Z,32.10
2022-08-16T14:13:29.663Z,32.10
2022-08-16T14:16:24.417Z,33.10
2022-08-16T14:19:22.500Z,33.20
2022-08-16T14:22:15.373Z,34.40
2022-08-16T14:25:21.784Z,34.00
2022-08-16T14:28:11.212Z,34.10
2022-08-16T14:31:01.854Z,33.50
2022-08-16T14:33:53.008Z,33.70
2022-08-16T14:36:40.927Z,32.80
2022-08-16T14:39:30.026Z,32.50
2022-08-16T14:42:21.126Z,33.10
2022-08-16T14:45:11.704Z,32.70
2022-08-16T14:48:01.234Z,31.80
2022-08-16T14:50:50.240Z,32.50
2022-08-16T14:53:38.491Z,32.20
2022-08-16T14:56:38.906Z,33.50
2022-08-16T14:59:31.585Z,33.00
2022-08-16T15:02:33.903Z,32.20
2022-08-16T15:05:24.934Z,31.90
2022-08-16T15:08:20.363Z,31.60
2022-08-16T15:11:08.545Z,32.50
2022-08-16T15:13:58.461Z,32.50
2022-08-16T15:16:46.825Z,32.80
2022-08-16T15:19:36.916Z,32.90
2022-08-16T15:22:31.544Z,33.00
2022-08-16T15:25:29.033Z,32.80
2022-08-16T15:28:23.473Z,33.60
2022-08-16T15:31:19.238Z,34.10
2022-08-16T15:34:06.951Z,33.10
2022-08-16T15:37:01.090Z,32.80
2022-08-16T15:39:53.790Z,32.70
2022-08-16T15:42:54.160Z,32.50
2022-08-16T15:45:55.899Z,33.90
2022-08-16T15:48:42.443Z,33.40
2022-08-16T15:51:30.985Z,33.10
2022-08-16T15:54:30.081Z,33.40
2022-08-16T15:57:18.864Z,33.50
2022-08-16T16:00:14.398Z,33.50
2022-08-16T16:03:08.752Z,34.40
2022-08-16T16:06:01.125Z,34.90
2022-08-16T16:08:51.401Z,34.80
2022-08-16T16:11:41.469Z,35.10
2022-08-16T16:14:30.301Z,35.40
2022-08-16T16:17:20.374Z,35.60
2022-08-16T16:20:14.617Z,35.10
2022-08-16T16:23:10.115Z,36.00
2022-08-16T16:25:59.863Z,36.40
2022-08-16T16:29:08.167Z,36.10
2022-08-16T16:32:05.075Z,36.60
2022-08-16T16:34:55.940Z,36.00
2022-08-16T16:37:43.982Z,35.90
2022-08-16T16:40:33.476Z,35.70
2022-08-16T16:43:26.065Z,36.80
2022-08-16T16:46:41.950Z,36.80
2022-08-16T16:49:30.386Z,36.80
2022-08-16T16:52:44.127Z,36.20
2022-08-16T16:55:28.135Z,36.70
2022-08-16T16:58:36.402Z,36.30
2022-08-16T17:01:41.539Z,37.30
2022-08-16T17:04:32.733Z,37.30
2022-08-16T17:07:24.293Z,37.20
2022-08-16T17:10:13.546Z,37.50
2022-08-16T17:13:23.775Z,37.90
2022-08-16T17:19:21.944Z,37.40
2022-08-16T17:22:15.423Z,37.60
2022-08-16T17:25:07.359Z,37.50
2022-08-16T17:27:56.770Z,39.70
2022-08-16T17:30:46.574Z,38.70
2022-08-16T17:33:37.034Z,38.40
2022-08-16T17:36:36.269Z,40.90
2022-08-16T17:39:25.543Z,40.80
2022-08-16T17:39:28.662Z,38.00
2022-08-16T17:42:18.279Z,42.80
2022-08-16T17:45:05.971Z,43.60
2022-08-16T17:47:54.374Z,43.10
2022-08-16T17:50:43.546Z,43.80
2022-08-16T17:53:32.678Z,44.40
2022-08-16T17:56:22.571Z,43.10
2022-08-16T17:59:12.149Z,43.90
2022-08-16T18:02:00.013Z,43.60
2022-08-16T18:05:03.200Z,44.70
2022-08-16T18:07:50.838Z,44.40
2022-08-16T18:10:40.262Z,43.90
2022-08-16T18:13:29.677Z,44.50
2022-08-16T18:16:18.767Z,44.30
2022-08-16T18:19:06.779Z,44.90
2022-08-16T18:22:11.890Z,45.30
2022-08-16T18:24:58.851Z,47.90
2022-08-16T18:27:45.068Z,45.60
2022-08-16T18:30:32.968Z,46.00
2022-08-16T18:33:24.406Z,46.10
2022-08-16T18:36:20.627Z,46.80
2022-08-16T18:39:10.485Z,46.80
2022-08-16T18:44:46.925Z,46.80
2022-08-16T18:47:34.679Z,48.60
2022-08-16T18:50:27.890Z,49.00
2022-08-16T18:53:36.122Z,48.80
2022-08-16T18:56:56.989Z,49.10
2022-08-16T18:59:33.263Z,48.90
2022-08-16T19:02:57.397Z,49.20
2022-08-16T19:05:39.056Z,49.40
2022-08-16T19:08:26.692Z,50.20
2022-08-16T19:11:19.307Z,49.90
2022-08-16T19:14:07.480Z,50.40
2022-08-16T19:16:56.584Z,50.60
2022-08-16T19:22:59.953Z,50.70
2022-08-16T19:25:49.611Z,51.70
2022-08-16T19:28:52.087Z,52.10
2022-08-16T19:31:47.859Z,53.00
2022-08-16T19:34:35.682Z,53.50
2022-08-16T19:37:23.328Z,52.80
2022-08-16T19:40:37.549Z,53.40
2022-08-16T19:43:22.881Z,54.00
2022-08-16T19:46:11.364Z,54.30
2022-08-16T19:48:59.086Z,55.10
2022-08-16T19:54:40.175Z,54.20
2022-08-16T19:57:30.978Z,55.30
2022-08-16T20:00:19.435Z,55.30
2022-08-16T20:03:14.294Z,55.20
2022-08-16T20:06:02.297Z,55.30
2022-08-16T20:08:50.029Z,55.90
2022-08-16T20:11:37.748Z,55.90
2022-08-16T20:14:27.328Z,56.30
2022-08-16T20:17:16.460Z,56.60
2022-08-16T20:20:04.111Z,57.50
2022-08-16T20:22:54.938Z,57.10
2022-08-16T20:25:49.527Z,57.20
2022-08-16T20:28:53.146Z,57.50
2022-08-16T20:31:43.916Z,57.70
2022-08-16T20:34:31.473Z,58.00
2022-08-16T20:37:22.191Z,58.30
2022-08-16T20:40:34.818Z,58.80
2022-08-16T20:43:23.008Z,59.10
2022-08-16T20:46:10.959Z,59.20
2022-08-16T20:49:00.677Z,59.20
2022-08-16T20:51:51.715Z,59.70
2022-08-16T20:54:41.776Z,60.10
2022-08-16T20:57:28.653Z,60.40
2022-08-16T21:03:08.761Z,60.10
2022-08-16T21:06:02.156Z,61.40
2022-08-16T21:08:53.879Z,61.70
2022-08-16T21:11:42.808Z,61.70
2022-08-16T21:14:34.320Z,61.70
2022-08-16T21:17:22.511Z,62.10
2022-08-16T21:20:10.960Z,62.40
2022-08-16T21:23:02.211Z,62.60
2022-08-16T21:25:59.103Z,62.70
2022-08-16T21:28:47.893Z,63.20
2022-08-16T21:31:36.190Z,63.20
2022-08-16T21:34:24.289Z,62.70
2022-08-16T21:37:12.345Z,63.90
2022-08-16T21:40:05.971Z,64.30
2022-08-16T21:42:54.544Z,64.30
2022-08-16T21:45:44.476Z,65.30
2022-08-16T21:48:34.536Z,64.70
2022-08-16T21:51:26.154Z,64.90
2022-08-16T21:54:13.976Z,64.80
2022-08-16T21:57:04.028Z,65.20
2022-08-16T21:59:53.697Z,65.60
2022-08-16T22:02:42.770Z,65.70
2022-08-16T22:05:32.218Z,65.80
2022-08-16T22:08:20.901Z,66.10
2022-08-16T22:11:09.653Z,66.30
2022-08-16T22:13:59.516Z,66.50
2022-08-16T22:16:47.412Z,66.70
2022-08-16T22:19:35.092Z,66.90
2022-08-16T22:22:22.716Z,66.90
2022-08-16T22:25:11.025Z,66.80
2022-08-16T22:27:58.533Z,67.00
2022-08-16T22:30:47.932Z,67.30
2022-08-16T22:33:35.439Z,67.30
2022-08-16T22:36:23.488Z,67.60
2022-08-16T22:39:16.597Z,68.80
2022-08-16T22:42:08.511Z,68.10
2022-08-16T22:44:56.557Z,68.20
2022-08-16T22:47:46.279Z,68.30
2022-08-16T22:50:36.162Z,68.50
2022-08-16T22:53:24.166Z,68.60
2022-08-16T22:56:12.282Z,69.00
2022-08-16T22:59:00.119Z,69.10
2022-08-16T23:01:47.968Z,70.60
2022-08-16T23:04:37.075Z,71.20
2022-08-16T23:07:25.694Z,70.10
2022-08-16T23:10:13.523Z,73.70
2022-08-16T23:13:04.728Z,78.40
2022-08-16T23:15:55.479Z,90.20
2022-08-16T23:18:44.175Z,87.20
2022-08-16T23:21:33.968Z,90.50
2022-08-16T23:24:21.481Z,90.10
2022-08-16T23:27:09.421Z,90.20
2022-08-16T23:29:57.287Z,90.60
2022-08-16T23:32:46.983Z,90.80
2022-08-16T23:35:45.070Z,78.40
2022-08-16T23:38:37.922Z,74.70
2022-08-16T23:41:26.495Z,71.50
2022-08-16T23:44:56.965Z,71.10
2022-08-16T23:47:21.782Z,71.50
2022-08-16T23:50:09.573Z,94.10
2022-08-16T23:53:01.196Z,94.90
2022-08-16T23:55:53.078Z,72.00
2022-08-16T23:58:43.787Z,72.10
